sensor_id;sensor_type;location;lat;lon;timestamp;P1;durP1;ratioP1;P2;durP2;ratioP2
21927;SDS011;11128;51.096;17.190;2022-07-05T00:04:41;14.45;;;12.32;;
21927;SDS011;11128;51.096;17.190;2022-07-05T00:09:47;13.40;;;11.50;;
21927;SDS011;11128;51.096;17.190;2022-07-05T00:14:51;14.40;;;11.85;;
21927;SDS011;11128;51.096;17.190;2022-07-05T00:19:54;12.25;;;10.85;;
21927;SDS011;11128;51.096;17.190;2022-07-05T00:24:55;13.13;;;11.20;;
21927;SDS011;11128;51.096;17.190;2022-07-05T00:29:57;15.68;;;12.38;;
21927;SDS011;11128;51.096;17.190;2022-07-05T00:34:59;13.95;;;11.65;;
21927;SDS011;11128;51.096;17.190;2022-07-05T00:40:02;12.70;;;10.93;;
21927;SDS011;11128;51.096;17.190;2022-07-05T00:45:06;12.70;;;11.05;;
21927;SDS011;11128;51.096;17.190;2022-07-05T00:50:10;14.23;;;11.45;;
21927;SDS011;11128;51.096;17.190;2022-07-05T00:55:13;15.48;;;11.32;;
21927;SDS011;11128;51.096;17.190;2022-07-05T01:00:16;15.20;;;11.50;;
21927;SDS011;11128;51.096;17.190;2022-07-05T01:05:17;12.68;;;11.32;;
21927;SDS011;11128;51.096;17.190;2022-07-05T01:10:19;14.43;;;10.63;;
21927;SDS011;11128;51.096;17.190;2022-07-05T01:15:21;14.82;;;13.27;;
21927;SDS011;11128;51.096;17.190;2022-07-05T01:20:23;14.57;;;10.90;;
21927;SDS011;11128;51.096;17.190;2022-07-05T01:25:26;13.57;;;10.07;;
21927;SDS011;11128;51.096;17.190;2022-07-05T01:30:28;11.15;;;9.95;;
21927;SDS011;11128;51.096;17.190;2022-07-05T01:35:32;16.20;;;9.95;;
21927;SDS011;11128;51.096;17.190;2022-07-05T01:40:34;10.25;;;8.20;;
21927;SDS011;11128;51.096;17.190;2022-07-05T01:45:35;11.10;;;8.75;;
21927;SDS011;11128;51.096;17.190;2022-07-05T01:50:41;11.93;;;9.85;;
21927;SDS011;11128;51.096;17.190;2022-07-05T01:55:53;15.43;;;8.65;;
21927;SDS011;11128;51.096;17.190;2022-07-05T02:00:57;14.05;;;8.60;;
21927;SDS011;11128;51.096;17.190;2022-07-05T02:06:00;9.35;;;8.23;;
21927;SDS011;11128;51.096;17.190;2022-07-05T02:11:02;12.25;;;8.25;;
21927;SDS011;11128;51.096;17.190;2022-07-05T02:16:04;9.85;;;8.68;;
21927;SDS011;11128;51.096;17.190;2022-07-05T02:21:06;12.35;;;8.40;;
21927;SDS011;11128;51.096;17.190;2022-07-05T02:26:07;10.15;;;8.35;;
21927;SDS011;11128;51.096;17.190;2022-07-05T02:31:08;16.15;;;8.43;;
21927;SDS011;11128;51.096;17.190;2022-07-05T02:36:13;15.40;;;9.98;;
21927;SDS011;11128;51.096;17.190;2022-07-05T02:41:14;16.33;;;9.48;;
21927;SDS011;11128;51.096;17.190;2022-07-05T02:46:16;16.77;;;10.40;;
21927;SDS011;11128;51.096;17.190;2022-07-05T02:51:17;12.00;;;10.43;;
21927;SDS011;11128;51.096;17.190;2022-07-05T02:56:18;15.45;;;10.40;;
21927;SDS011;11128;51.096;17.190;2022-07-05T03:01:20;16.45;;;10.68;;
21927;SDS011;11128;51.096;17.190;2022-07-05T03:06:21;13.13;;;10.13;;
21927;SDS011;11128;51.096;17.190;2022-07-05T03:11:22;16.50;;;10.38;;
21927;SDS011;11128;51.096;17.190;2022-07-05T03:16:24;13.32;;;10.52;;
21927;SDS011;11128;51.096;17.190;2022-07-05T03:21:25;13.32;;;10.63;;
21927;SDS011;11128;51.096;17.190;2022-07-05T03:26:27;12.80;;;10.55;;
21927;SDS011;11128;51.096;17.190;2022-07-05T03:31:29;13.80;;;10.68;;
21927;SDS011;11128;51.096;17.190;2022-07-05T03:36:30;14.07;;;10.15;;
21927;SDS011;11128;51.096;17.190;2022-07-05T03:41:32;13.73;;;10.35;;
21927;SDS011;11128;51.096;17.190;2022-07-05T03:46:33;16.30;;;9.98;;
21927;SDS011;11128;51.096;17.190;2022-07-05T03:51:34;11.02;;;9.80;;
21927;SDS011;11128;51.096;17.190;2022-07-05T03:56:36;16.05;;;10.40;;
21927;SDS011;11128;51.096;17.190;2022-07-05T04:01:38;13.68;;;11.60;;
21927;SDS011;11128;51.096;17.190;2022-07-05T04:06:40;14.48;;;9.90;;
21927;SDS011;11128;51.096;17.190;2022-07-05T04:11:42;11.15;;;9.43;;
21927;SDS011;11128;51.096;17.190;2022-07-05T04:16:44;14.13;;;10.80;;
21927;SDS011;11128;51.096;17.190;2022-07-05T04:21:45;13.45;;;11.05;;
21927;SDS011;11128;51.096;17.190;2022-07-05T04:26:46;16.45;;;11.65;;
21927;SDS011;11128;51.096;17.190;2022-07-05T04:31:49;15.90;;;10.40;;
21927;SDS011;11128;51.096;17.190;2022-07-05T04:36:51;16.67;;;10.95;;
21927;SDS011;11128;51.096;17.190;2022-07-05T04:41:53;13.63;;;10.10;;
21927;SDS011;11128;51.096;17.190;2022-07-05T04:46:54;11.38;;;9.95;;
21927;SDS011;11128;51.096;17.190;2022-07-05T04:51:56;11.13;;;9.95;;
21927;SDS011;11128;51.096;17.190;2022-07-05T04:56:57;15.52;;;10.77;;
21927;SDS011;11128;51.096;17.190;2022-07-05T05:01:59;12.50;;;9.55;;
21927;SDS011;11128;51.096;17.190;2022-07-05T05:07:01;13.77;;;11.00;;
21927;SDS011;11128;51.096;17.190;2022-07-05T05:12:02;14.65;;;10.98;;
21927;SDS011;11128;51.096;17.190;2022-07-05T05:17:04;12.38;;;10.80;;
21927;SDS011;11128;51.096;17.190;2022-07-05T05:22:06;12.52;;;10.13;;
21927;SDS011;11128;51.096;17.190;2022-07-05T05:27:08;13.07;;;9.95;;
21927;SDS011;11128;51.096;17.190;2022-07-05T05:32:09;14.82;;;9.93;;
21927;SDS011;11128;51.096;17.190;2022-07-05T05:37:10;14.05;;;10.15;;
21927;SDS011;11128;51.096;17.190;2022-07-05T05:42:12;11.82;;;9.77;;
21927;SDS011;11128;51.096;17.190;2022-07-05T05:47:13;13.93;;;9.63;;
21927;SDS011;11128;51.096;17.190;2022-07-05T05:52:15;12.45;;;8.80;;
21927;SDS011;11128;51.096;17.190;2022-07-05T05:57:18;12.55;;;8.60;;
21927;SDS011;11128;51.096;17.190;2022-07-05T06:02:21;10.63;;;9.52;;
21927;SDS011;11128;51.096;17.190;2022-07-05T06:07:22;12.13;;;8.60;;
21927;SDS011;11128;51.096;17.190;2022-07-05T06:12:24;10.57;;;8.10;;
21927;SDS011;11128;51.096;17.190;2022-07-05T06:17:27;10.43;;;8.45;;
21927;SDS011;11128;51.096;17.190;2022-07-05T06:22:29;9.50;;;8.23;;
21927;SDS011;11128;51.096;17.190;2022-07-05T06:27:30;10.73;;;8.13;;
21927;SDS011;11128;51.096;17.190;2022-07-05T06:32:32;10.98;;;8.07;;
21927;SDS011;11128;51.096;17.190;2022-07-05T06:37:41;9.30;;;7.60;;
21927;SDS011;11128;51.096;17.190;2022-07-05T06:42:48;9.40;;;7.70;;
21927;SDS011;11128;51.096;17.190;2022-07-05T06:53:02;8.38;;;7.28;;
21927;SDS011;11128;51.096;17.190;2022-07-05T06:58:05;11.85;;;7.68;;
21927;SDS011;11128;51.096;17.190;2022-07-05T07:03:08;9.48;;;7.97;;
21927;SDS011;11128;51.096;17.190;2022-07-05T07:08:10;10.02;;;8.35;;
21927;SDS011;11128;51.096;17.190;2022-07-05T07:13:30;11.15;;;8.88;;
21927;SDS011;11128;51.096;17.190;2022-07-05T07:18:31;13.13;;;9.10;;
21927;SDS011;11128;51.096;17.190;2022-07-05T07:23:34;10.73;;;9.55;;
21927;SDS011;11128;51.096;17.190;2022-07-05T07:28:36;11.13;;;9.50;;
21927;SDS011;11128;51.096;17.190;2022-07-05T07:33:38;12.35;;;9.77;;
21927;SDS011;11128;51.096;17.190;2022-07-05T07:38:39;12.32;;;9.52;;
21927;SDS011;11128;51.096;17.190;2022-07-05T07:43:41;9.75;;;8.48;;
21927;SDS011;11128;51.096;17.190;2022-07-05T07:48:43;12.40;;;8.90;;
21927;SDS011;11128;51.096;17.190;2022-07-05T07:53:44;11.60;;;10.40;;
21927;SDS011;11128;51.096;17.190;2022-07-05T07:58:49;12.73;;;10.25;;
21927;SDS011;11128;51.096;17.190;2022-07-05T08:03:51;12.13;;;10.23;;
21927;SDS011;11128;51.096;17.190;2022-07-05T08:08:53;11.57;;;10.18;;
21927;SDS011;11128;51.096;17.190;2022-07-05T08:13:55;10.90;;;9.57;;
21927;SDS011;11128;51.096;17.190;2022-07-05T08:18:57;11.02;;;8.65;;
21927;SDS011;11128;51.096;17.190;2022-07-05T08:24:18;11.93;;;9.52;;
21927;SDS011;11128;51.096;17.190;2022-07-05T08:29:20;9.90;;;8.27;;
21927;SDS011;11128;51.096;17.190;2022-07-05T08:34:21;11.13;;;8.38;;
21927;SDS011;11128;51.096;17.190;2022-07-05T08:39:24;9.48;;;8.48;;
21927;SDS011;11128;51.096;17.190;2022-07-05T08:44:26;12.23;;;8.48;;
21927;SDS011;11128;51.096;17.190;2022-07-05T08:49:30;10.77;;;8.65;;
21927;SDS011;11128;51.096;17.190;2022-07-05T08:54:35;12.05;;;9.10;;
21927;SDS011;11128;51.096;17.190;2022-07-05T08:59:38;9.60;;;8.57;;
21927;SDS011;11128;51.096;17.190;2022-07-05T09:04:41;9.98;;;8.73;;
21927;SDS011;11128;51.096;17.190;2022-07-05T09:09:47;8.82;;;7.93;;
21927;SDS011;11128;51.096;17.190;2022-07-05T09:14:52;8.52;;;7.53;;
21927;SDS011;11128;51.096;17.190;2022-07-05T09:20:04;9.80;;;7.75;;
21927;SDS011;11128;51.096;17.190;2022-07-05T09:25:25;9.05;;;6.43;;
21927;SDS011;11128;51.096;17.190;2022-07-05T09:30:36;9.18;;;6.07;;
21927;SDS011;11128;51.096;17.190;2022-07-05T09:35:40;6.28;;;5.18;;
21927;SDS011;11128;51.096;17.190;2022-07-05T09:40:58;7.72;;;5.43;;
21927;SDS011;11128;51.096;17.190;2022-07-05T09:56:11;3.83;;;3.45;;
21927;SDS011;11128;51.096;17.190;2022-07-05T10:01:26;5.60;;;2.50;;
21927;SDS011;11128;51.096;17.190;2022-07-05T10:06:33;2.65;;;2.40;;
21927;SDS011;11128;51.096;17.190;2022-07-05T10:11:34;3.25;;;2.10;;
21927;SDS011;11128;51.096;17.190;2022-07-05T10:16:40;4.65;;;2.20;;
21927;SDS011;11128;51.096;17.190;2022-07-05T10:21:46;7.97;;;2.67;;
21927;SDS011;11128;51.096;17.190;2022-07-05T10:26:48;4.15;;;2.70;;
21927;SDS011;11128;51.096;17.190;2022-07-05T10:31:50;3.00;;;2.67;;
21927;SDS011;11128;51.096;17.190;2022-07-05T10:36:52;2.83;;;2.30;;
21927;SDS011;11128;51.096;17.190;2022-07-05T10:41:54;3.30;;;2.85;;
21927;SDS011;11128;51.096;17.190;2022-07-05T10:47:06;4.85;;;3.30;;
21927;SDS011;11128;51.096;17.190;2022-07-05T10:52:21;4.35;;;3.63;;
21927;SDS011;11128;51.096;17.190;2022-07-05T10:57:24;8.13;;;3.13;;
21927;SDS011;11128;51.096;17.190;2022-07-05T11:02:27;3.75;;;3.35;;
21927;SDS011;11128;51.096;17.190;2022-07-05T11:12:59;5.28;;;3.53;;
21927;SDS011;11128;51.096;17.190;2022-07-05T11:18:16;6.07;;;3.50;;
21927;SDS011;11128;51.096;17.190;2022-07-05T11:23:26;4.50;;;3.00;;
21927;SDS011;11128;51.096;17.190;2022-07-05T11:28:29;5.05;;;2.95;;
21927;SDS011;11128;51.096;17.190;2022-07-05T11:33:43;5.22;;;3.42;;
21927;SDS011;11128;51.096;17.190;2022-07-05T11:44:09;7.30;;;3.08;;
21927;SDS011;11128;51.096;17.190;2022-07-05T11:49:11;3.20;;;2.60;;
21927;SDS011;11128;51.096;17.190;2022-07-05T11:54:22;3.65;;;2.72;;
21927;SDS011;11128;51.096;17.190;2022-07-05T11:59:27;3.28;;;2.97;;
21927;SDS011;11128;51.096;17.190;2022-07-05T12:04:30;6.22;;;2.90;;
21927;SDS011;11128;51.096;17.190;2022-07-05T12:09:32;5.30;;;2.90;;
21927;SDS011;11128;51.096;17.190;2022-07-05T12:14:53;5.10;;;3.10;;
21927;SDS011;11128;51.096;17.190;2022-07-05T12:19:55;7.03;;;3.00;;
21927;SDS011;11128;51.096;17.190;2022-07-05T12:24:59;6.72;;;3.08;;
21927;SDS011;11128;51.096;17.190;2022-07-05T12:30:02;3.45;;;3.03;;
21927;SDS011;11128;51.096;17.190;2022-07-05T12:35:06;4.78;;;3.03;;
21927;SDS011;11128;51.096;17.190;2022-07-05T12:40:31;5.53;;;2.85;;
21927;SDS011;11128;51.096;17.190;2022-07-05T12:45:33;5.65;;;3.28;;
21927;SDS011;11128;51.096;17.190;2022-07-05T12:50:48;4.80;;;2.60;;
21927;SDS011;11128;51.096;17.190;2022-07-05T12:55:59;2.83;;;2.30;;
21927;SDS011;11128;51.096;17.190;2022-07-05T13:01:29;2.42;;;2.22;;
21927;SDS011;11128;51.096;17.190;2022-07-05T13:17:14;2.63;;;2.35;;
21927;SDS011;11128;51.096;17.190;2022-07-05T13:22:24;1.70;;;1.60;;
21927;SDS011;11128;51.096;17.190;2022-07-05T13:27:25;2.05;;;1.85;;
21927;SDS011;11128;51.096;17.190;2022-07-05T13:32:27;1.42;;;1.33;;
21927;SDS011;11128;51.096;17.190;2022-07-05T13:37:29;2.03;;;1.83;;
21927;SDS011;11128;51.096;17.190;2022-07-05T13:42:31;1.67;;;1.58;;
21927;SDS011;11128;51.096;17.190;2022-07-05T13:47:32;4.53;;;1.73;;
21927;SDS011;11128;51.096;17.190;2022-07-05T13:52:33;1.75;;;1.52;;
21927;SDS011;11128;51.096;17.190;2022-07-05T13:57:36;4.00;;;1.27;;
21927;SDS011;11128;51.096;17.190;2022-07-05T14:02:38;1.73;;;1.10;;
21927;SDS011;11128;51.096;17.190;2022-07-05T14:07:39;1.20;;;1.00;;
21927;SDS011;11128;51.096;17.190;2022-07-05T14:12:40;1.50;;;1.00;;
21927;SDS011;11128;51.096;17.190;2022-07-05T14:17:42;2.42;;;0.90;;
21927;SDS011;11128;51.096;17.190;2022-07-05T14:22:43;1.45;;;0.82;;
21927;SDS011;11128;51.096;17.190;2022-07-05T14:27:45;1.00;;;0.85;;
21927;SDS011;11128;51.096;17.190;2022-07-05T14:32:48;1.13;;;1.02;;
21927;SDS011;11128;51.096;17.190;2022-07-05T14:37:50;1.55;;;0.98;;
21927;SDS011;11128;51.096;17.190;2022-07-05T14:42:52;1.58;;;0.80;;
21927;SDS011;11128;51.096;17.190;2022-07-05T14:47:54;0.68;;;0.68;;
21927;SDS011;11128;51.096;17.190;2022-07-05T14:52:56;1.23;;;0.93;;
21927;SDS011;11128;51.096;17.190;2022-07-05T14:57:58;1.33;;;0.90;;
21927;SDS011;11128;51.096;17.190;2022-07-05T15:03:00;0.90;;;0.90;;
21927;SDS011;11128;51.096;17.190;2022-07-05T15:08:02;2.05;;;0.90;;
21927;SDS011;11128;51.096;17.190;2022-07-05T15:13:04;2.60;;;1.10;;
21927;SDS011;11128;51.096;17.190;2022-07-05T15:18:06;0.90;;;0.80;;
21927;SDS011;11128;51.096;17.190;2022-07-05T15:23:08;2.50;;;1.17;;
21927;SDS011;11128;51.096;17.190;2022-07-05T15:28:10;1.98;;;0.70;;
21927;SDS011;11128;51.096;17.190;2022-07-05T15:33:12;4.18;;;0.98;;
21927;SDS011;11128;51.096;17.190;2022-07-05T15:38:14;0.77;;;0.77;;
21927;SDS011;11128;51.096;17.190;2022-07-05T15:43:15;1.25;;;0.90;;
21927;SDS011;11128;51.096;17.190;2022-07-05T15:48:17;0.90;;;0.90;;
21927;SDS011;11128;51.096;17.190;2022-07-05T15:53:19;1.73;;;1.17;;
21927;SDS011;11128;51.096;17.190;2022-07-05T15:58:20;0.90;;;0.90;;
21927;SDS011;11128;51.096;17.190;2022-07-05T16:03:22;2.22;;;1.00;;
21927;SDS011;11128;51.096;17.190;2022-07-05T16:08:26;1.92;;;1.00;;
21927;SDS011;11128;51.096;17.190;2022-07-05T16:13:28;1.50;;;0.98;;
21927;SDS011;11128;51.096;17.190;2022-07-05T16:18:33;2.83;;;1.10;;
21927;SDS011;11128;51.096;17.190;2022-07-05T16:23:37;1.15;;;1.05;;
21927;SDS011;11128;51.096;17.190;2022-07-05T16:28:40;2.05;;;0.90;;
21927;SDS011;11128;51.096;17.190;2022-07-05T16:33:43;2.05;;;1.27;;
21927;SDS011;11128;51.096;17.190;2022-07-05T16:38:48;1.60;;;1.05;;
21927;SDS011;11128;51.096;17.190;2022-07-05T16:43:51;2.33;;;1.20;;
21927;SDS011;11128;51.096;17.190;2022-07-05T16:48:52;1.10;;;1.10;;
21927;SDS011;11128;51.096;17.190;2022-07-05T16:53:55;1.52;;;1.30;;
21927;SDS011;11128;51.096;17.190;2022-07-05T16:58:56;2.03;;;1.45;;
21927;SDS011;11128;51.096;17.190;2022-07-05T17:03:59;1.33;;;1.05;;
21927;SDS011;11128;51.096;17.190;2022-07-05T17:09:01;1.63;;;1.25;;
21927;SDS011;11128;51.096;17.190;2022-07-05T17:14:03;2.72;;;1.20;;
21927;SDS011;11128;51.096;17.190;2022-07-05T17:19:04;1.88;;;1.30;;
21927;SDS011;11128;51.096;17.190;2022-07-05T17:24:07;2.78;;;1.17;;
21927;SDS011;11128;51.096;17.190;2022-07-05T17:29:10;1.75;;;1.30;;
21927;SDS011;11128;51.096;17.190;2022-07-05T17:34:11;3.20;;;1.63;;
21927;SDS011;11128;51.096;17.190;2022-07-05T17:39:14;2.60;;;1.63;;
21927;SDS011;11128;51.096;17.190;2022-07-05T17:44:16;1.40;;;1.30;;
21927;SDS011;11128;51.096;17.190;2022-07-05T17:49:18;2.72;;;1.50;;
21927;SDS011;11128;51.096;17.190;2022-07-05T17:54:19;1.70;;;1.60;;
21927;SDS011;11128;51.096;17.190;2022-07-05T17:59:23;2.42;;;1.45;;
21927;SDS011;11128;51.096;17.190;2022-07-05T18:04:24;2.42;;;1.90;;
21927;SDS011;11128;51.096;17.190;2022-07-05T18:09:26;1.85;;;1.63;;
21927;SDS011;11128;51.096;17.190;2022-07-05T18:14:28;2.65;;;1.50;;
21927;SDS011;11128;51.096;17.190;2022-07-05T18:19:30;2.80;;;1.52;;
21927;SDS011;11128;51.096;17.190;2022-07-05T18:24:33;2.28;;;1.55;;
21927;SDS011;11128;51.096;17.190;2022-07-05T18:29:34;1.67;;;1.55;;
21927;SDS011;11128;51.096;17.190;2022-07-05T18:34:36;2.25;;;1.70;;
21927;SDS011;11128;51.096;17.190;2022-07-05T18:39:37;4.38;;;2.00;;
21927;SDS011;11128;51.096;17.190;2022-07-05T18:44:39;2.03;;;1.70;;
21927;SDS011;11128;51.096;17.190;2022-07-05T18:49:41;3.10;;;1.70;;
21927;SDS011;11128;51.096;17.190;2022-07-05T18:54:43;3.10;;;1.65;;
21927;SDS011;11128;51.096;17.190;2022-07-05T18:59:45;4.30;;;1.55;;
21927;SDS011;11128;51.096;17.190;2022-07-05T19:04:47;2.10;;;1.75;;
21927;SDS011;11128;51.096;17.190;2022-07-05T19:09:50;5.72;;;1.85;;
21927;SDS011;11128;51.096;17.190;2022-07-05T19:15:10;3.65;;;2.50;;
21927;SDS011;11128;51.096;17.190;2022-07-05T19:20:11;6.35;;;3.17;;
21927;SDS011;11128;51.096;17.190;2022-07-05T19:25:13;4.53;;;2.85;;
21927;SDS011;11128;51.096;17.190;2022-07-05T19:30:15;5.93;;;3.15;;
21927;SDS011;11128;51.096;17.190;2022-07-05T19:35:16;4.65;;;3.20;;
21927;SDS011;11128;51.096;17.190;2022-07-05T19:40:18;5.22;;;3.25;;
21927;SDS011;11128;51.096;17.190;2022-07-05T19:45:21;8.93;;;3.53;;
21927;SDS011;11128;51.096;17.190;2022-07-05T19:50:22;5.82;;;3.55;;
21927;SDS011;11128;51.096;17.190;2022-07-05T19:55:24;6.28;;;3.72;;
21927;SDS011;11128;51.096;17.190;2022-07-05T20:00:26;7.95;;;3.50;;
21927;SDS011;11128;51.096;17.190;2022-07-05T20:05:27;10.45;;;6.40;;
21927;SDS011;11128;51.096;17.190;2022-07-05T20:10:29;14.02;;;7.47;;
21927;SDS011;11128;51.096;17.190;2022-07-05T20:15:30;12.70;;;6.65;;
21927;SDS011;11128;51.096;17.190;2022-07-05T20:20:33;9.63;;;6.18;;
21927;SDS011;11128;51.096;17.190;2022-07-05T20:25:34;14.85;;;7.10;;
21927;SDS011;11128;51.096;17.190;2022-07-05T20:30:37;13.48;;;7.50;;
21927;SDS011;11128;51.096;17.190;2022-07-05T20:35:39;11.73;;;6.93;;
21927;SDS011;11128;51.096;17.190;2022-07-05T20:40:42;10.25;;;6.60;;
21927;SDS011;11128;51.096;17.190;2022-07-05T20:45:44;13.88;;;7.55;;
21927;SDS011;11128;51.096;17.190;2022-07-05T20:50:46;10.63;;;6.00;;
21927;SDS011;11128;51.096;17.190;2022-07-05T20:55:48;9.32;;;5.28;;
21927;SDS011;11128;51.096;17.190;2022-07-05T21:00:53;7.55;;;4.95;;
21927;SDS011;11128;51.096;17.190;2022-07-05T21:05:55;7.05;;;5.05;;
21927;SDS011;11128;51.096;17.190;2022-07-05T21:10:58;4.90;;;4.28;;
21927;SDS011;11128;51.096;17.190;2022-07-05T21:16:00;7.93;;;4.50;;
21927;SDS011;11128;51.096;17.190;2022-07-05T21:21:01;6.75;;;4.70;;
21927;SDS011;11128;51.096;17.190;2022-07-05T21:26:03;8.13;;;5.07;;
21927;SDS011;11128;51.096;17.190;2022-07-05T21:31:05;8.15;;;5.50;;
21927;SDS011;11128;51.096;17.190;2022-07-05T21:36:06;11.38;;;5.53;;
21927;SDS011;11128;51.096;17.190;2022-07-05T21:41:08;6.57;;;4.97;;
21927;SDS011;11128;51.096;17.190;2022-07-05T21:46:11;5.63;;;4.30;;
21927;SDS011;11128;51.096;17.190;2022-07-05T21:51:14;5.57;;;4.03;;
21927;SDS011;11128;51.096;17.190;2022-07-05T21:56:16;6.97;;;4.70;;
21927;SDS011;11128;51.096;17.190;2022-07-05T22:01:17;8.10;;;4.30;;
21927;SDS011;11128;51.096;17.190;2022-07-05T22:06:37;8.97;;;4.10;;
21927;SDS011;11128;51.096;17.190;2022-07-05T22:11:39;4.95;;;4.05;;
21927;SDS011;11128;51.096;17.190;2022-07-05T22:16:40;4.95;;;4.10;;
21927;SDS011;11128;51.096;17.190;2022-07-05T22:21:42;5.07;;;4.18;;
21927;SDS011;11128;51.096;17.190;2022-07-05T22:26:44;4.88;;;3.95;;
21927;SDS011;11128;51.096;17.190;2022-07-05T22:31:46;9.07;;;4.38;;
21927;SDS011;11128;51.096;17.190;2022-07-05T22:36:48;7.38;;;4.40;;
21927;SDS011;11128;51.096;17.190;2022-07-05T22:41:49;6.35;;;4.30;;
21927;SDS011;11128;51.096;17.190;2022-07-05T22:46:52;7.45;;;4.57;;
21927;SDS011;11128;51.096;17.190;2022-07-05T22:51:54;5.95;;;4.55;;
21927;SDS011;11128;51.096;17.190;2022-07-05T22:56:55;6.20;;;4.90;;
21927;SDS011;11128;51.096;17.190;2022-07-05T23:01:57;8.23;;;5.38;;
21927;SDS011;11128;51.096;17.190;2022-07-05T23:06:58;7.55;;;5.20;;
21927;SDS011;11128;51.096;17.190;2022-07-05T23:12:00;8.15;;;5.07;;
21927;SDS011;11128;51.096;17.190;2022-07-05T23:17:01;6.32;;;5.40;;
21927;SDS011;11128;51.096;17.190;2022-07-05T23:22:04;6.50;;;4.93;;
21927;SDS011;11128;51.096;17.190;2022-07-05T23:27:05;9.00;;;4.72;;
21927;SDS011;11128;51.096;17.190;2022-07-05T23:32:06;6.30;;;4.43;;
21927;SDS011;11128;51.096;17.190;2022-07-05T23:37:08;7.25;;;4.00;;
21927;SDS011;11128;51.096;17.190;2022-07-05T23:42:09;6.30;;;4.50;;
21927;SDS011;11128;51.096;17.190;2022-07-05T23:47:11;5.20;;;4.28;;
21927;SDS011;11128;51.096;17.190;2022-07-05T23:52:12;7.30;;;5.82;;
21927;SDS011;11128;51.096;17.190;2022-07-05T23:57:14;7.15;;;5.93;;
